sensor_id;sensor_type;location;lat;lon;timestamp;pressure;altitude;pressure_sealevel;temperature;humidity
49122;BME280;35529;44.342;25.944;2023-11-19T00:00:22;100404.56;;;6.68;100.00
49122;BME280;35529;44.342;25.944;2023-11-19T00:02:49;100401.91;;;6.68;100.00
49122;BME280;35529;44.342;25.944;2023-11-19T00:05:15;100406.72;;;6.65;100.00
49122;BME280;35529;44.342;25.944;2023-11-19T00:07:41;100409.72;;;6.53;100.00
49122;BME280;35529;44.342;25.944;2023-11-19T00:10:11;100402.81;;;6.52;100.00
49122;BME280;35529;44.342;25.944;2023-11-19T00:12:42;100423.91;;;6.52;100.00
49122;BME280;35529;44.342;25.944;2023-11-19T00:15:08;100423.44;;;6.49;100.00
49122;BME280;35529;44.342;25.944;2023-11-19T00:17:37;100420.41;;;6.60;100.00
49122;BME280;35529;44.342;25.944;2023-11-19T00:20:05;100426.13;;;6.72;100.00
49122;BME280;35529;44.342;25.944;2023-11-19T00:22:31;100428.25;;;6.77;100.00
49122;BME280;35529;44.342;25.944;2023-11-19T00:24:58;100428.88;;;6.79;100.00
49122;BME280;35529;44.342;25.944;2023-11-19T00:27:25;100436.94;;;6.85;100.00
49122;BME280;35529;44.342;25.944;2023-11-19T00:29:51;100436.09;;;6.93;100.00
49122;BME280;35529;44.342;25.944;2023-11-19T00:32:17;100434.56;;;6.99;100.00
49122;BME280;35529;44.342;25.944;2023-11-19T00:34:44;100435.03;;;7.02;100.00
49122;BME280;35529;44.342;25.944;2023-11-19T00:37:10;100428.78;;;7.03;100.00
49122;BME280;35529;44.342;25.944;2023-11-19T00:39:36;100434.34;;;7.09;100.00
49122;BME280;35529;44.342;25.944;2023-11-19T00:42:03;100442.09;;;7.10;100.00
49122;BME280;35529;44.342;25.944;2023-11-19T00:44:29;100441.44;;;7.08;100.00
49122;BME280;35529;44.342;25.944;2023-11-19T00:46:55;100438.44;;;7.11;100.00
49122;BME280;35529;44.342;25.944;2023-11-19T00:49:21;100434.94;;;7.19;100.00
49122;BME280;35529;44.342;25.944;2023-11-19T00:51:47;100444.31;;;7.21;100.00
49122;BME280;35529;44.342;25.944;2023-11-19T00:54:13;100441.00;;;7.28;100.00
49122;BME280;35529;44.342;25.944;2023-11-19T00:56:39;100449.22;;;7.33;100.00
49122;BME280;35529;44.342;25.944;2023-11-19T00:59:05;100452.31;;;7.36;100.00
49122;BME280;35529;44.342;25.944;2023-11-19T01:01:31;100456.91;;;7.43;100.00
49122;BME280;35529;44.342;25.944;2023-11-19T01:03:58;100449.16;;;7.41;100.00
49122;BME280;35529;44.342;25.944;2023-11-19T01:06:27;100451.25;;;7.46;100.00
49122;BME280;35529;44.342;25.944;2023-11-19T01:08:54;100458.19;;;7.47;100.00
49122;BME280;35529;44.342;25.944;2023-11-19T01:11:22;100457.00;;;7.49;100.00
49122;BME280;35529;44.342;25.944;2023-11-19T01:13:49;100453.84;;;7.54;100.00
49122;BME280;35529;44.342;25.944;2023-11-19T01:16:15;100452.84;;;7.55;100.00
49122;BME280;35529;44.342;25.944;2023-11-19T01:18:41;100457.50;;;7.53;100.00
49122;BME280;35529;44.342;25.944;2023-11-19T01:21:07;100456.31;;;7.55;100.00
49122;BME280;35529;44.342;25.944;2023-11-19T01:23:34;100454.31;;;7.58;100.00
49122;BME280;35529;44.342;25.944;2023-11-19T01:26:00;100457.94;;;7.57;100.00
49122;BME280;35529;44.342;25.944;2023-11-19T01:28:27;100456.13;;;7.57;100.00
49122;BME280;35529;44.342;25.944;2023-11-19T01:30:53;100456.44;;;7.62;100.00
49122;BME280;35529;44.342;25.944;2023-11-19T01:33:19;100457.13;;;7.56;100.00
49122;BME280;35529;44.342;25.944;2023-11-19T01:35:45;100454.19;;;7.51;100.00
49122;BME280;35529;44.342;25.944;2023-11-19T01:38:11;100436.50;;;7.51;100.00
49122;BME280;35529;44.342;25.944;2023-11-19T01:40:37;100437.72;;;7.49;100.00
49122;BME280;35529;44.342;25.944;2023-11-19T01:43:03;100441.34;;;7.48;100.00
49122;BME280;35529;44.342;25.944;2023-11-19T01:45:30;100437.41;;;7.44;100.00
49122;BME280;35529;44.342;25.944;2023-11-19T01:47:57;100427.53;;;7.37;100.00
49122;BME280;35529;44.342;25.944;2023-11-19T01:50:23;100439.81;;;7.30;100.00
49122;BME280;35529;44.342;25.944;2023-11-19T01:52:53;100435.72;;;7.28;100.00
49122;BME280;35529;44.342;25.944;2023-11-19T01:55:20;100436.59;;;7.20;100.00
49122;BME280;35529;44.342;25.944;2023-11-19T01:57:47;100437.41;;;7.20;100.00
49122;BME280;35529;44.342;25.944;2023-11-19T02:00:15;100434.75;;;7.20;100.00
49122;BME280;35529;44.342;25.944;2023-11-19T02:02:42;100439.75;;;7.15;100.00
49122;BME280;35529;44.342;25.944;2023-11-19T02:05:09;100449.84;;;7.12;100.00
49122;BME280;35529;44.342;25.944;2023-11-19T02:07:36;100445.38;;;7.12;100.00
49122;BME280;35529;44.342;25.944;2023-11-19T02:10:02;100431.88;;;7.07;100.00
49122;BME280;35529;44.342;25.944;2023-11-19T02:12:34;100432.53;;;7.09;100.00
49122;BME280;35529;44.342;25.944;2023-11-19T02:15:02;100433.50;;;7.08;100.00
49122;BME280;35529;44.342;25.944;2023-11-19T02:17:29;100435.34;;;7.08;100.00
49122;BME280;35529;44.342;25.944;2023-11-19T02:19:57;100435.16;;;7.09;100.00
49122;BME280;35529;44.342;25.944;2023-11-19T02:22:24;100437.28;;;7.14;100.00
49122;BME280;35529;44.342;25.944;2023-11-19T02:24:54;100438.56;;;7.18;100.00
49122;BME280;35529;44.342;25.944;2023-11-19T02:27:29;100438.56;;;7.18;100.00
49122;BME280;35529;44.342;25.944;2023-11-19T02:29:56;100439.59;;;7.17;100.00
49122;BME280;35529;44.342;25.944;2023-11-19T02:32:23;100429.13;;;7.24;100.00
49122;BME280;35529;44.342;25.944;2023-11-19T02:34:49;100430.94;;;7.23;100.00
49122;BME280;35529;44.342;25.944;2023-11-19T02:37:16;100429.94;;;7.24;100.00
49122;BME280;35529;44.342;25.944;2023-11-19T02:39:42;100430.63;;;7.26;100.00
49122;BME280;35529;44.342;25.944;2023-11-19T02:42:08;100434.13;;;7.18;100.00
49122;BME280;35529;44.342;25.944;2023-11-19T02:44:34;100438.56;;;7.18;100.00
49122;BME280;35529;44.342;25.944;2023-11-19T02:47:00;100440.94;;;7.13;100.00
49122;BME280;35529;44.342;25.944;2023-11-19T02:49:28;100434.34;;;7.09;100.00
49122;BME280;35529;44.342;25.944;2023-11-19T02:51:54;100444.06;;;7.08;100.00
49122;BME280;35529;44.342;25.944;2023-11-19T02:54:20;100442.72;;;7.12;100.00
49122;BME280;35529;44.342;25.944;2023-11-19T02:56:47;100445.69;;;7.17;100.00
49122;BME280;35529;44.342;25.944;2023-11-19T02:59:21;100458.38;;;7.22;100.00
49122;BME280;35529;44.342;25.944;2023-11-19T03:05:10;100447.56;;;7.09;100.00
49122;BME280;35529;44.342;25.944;2023-11-19T03:07:37;100448.94;;;6.96;100.00
49122;BME280;35529;44.342;25.944;2023-11-19T03:10:03;100455.28;;;6.79;100.00
49122;BME280;35529;44.342;25.944;2023-11-19T03:12:46;100454.84;;;6.67;100.00
49122;BME280;35529;44.342;25.944;2023-11-19T03:24:18;100452.19;;;6.75;100.00
49122;BME280;35529;44.342;25.944;2023-11-19T03:26:51;100454.97;;;6.82;100.00
49122;BME280;35529;44.342;25.944;2023-11-19T03:32:21;100460.84;;;6.52;100.00
49122;BME280;35529;44.342;25.944;2023-11-19T03:34:50;100459.34;;;6.58;100.00
49122;BME280;35529;44.342;25.944;2023-11-19T03:37:18;100469.69;;;6.68;100.00
49122;BME280;35529;44.342;25.944;2023-11-19T03:39:44;100469.63;;;6.76;100.00
49122;BME280;35529;44.342;25.944;2023-11-19T03:42:10;100467.97;;;6.83;100.00
49122;BME280;35529;44.342;25.944;2023-11-19T03:44:39;100467.75;;;6.93;100.00
49122;BME280;35529;44.342;25.944;2023-11-19T03:47:05;100468.06;;;6.98;100.00
49122;BME280;35529;44.342;25.944;2023-11-19T03:49:32;100473.47;;;7.05;100.00
49122;BME280;35529;44.342;25.944;2023-11-19T03:51:58;100484.66;;;7.07;100.00
49122;BME280;35529;44.342;25.944;2023-11-19T03:54:24;100491.09;;;7.13;100.00
49122;BME280;35529;44.342;25.944;2023-11-19T03:56:50;100501.13;;;7.17;100.00
49122;BME280;35529;44.342;25.944;2023-11-19T03:59:16;100515.00;;;7.19;100.00
49122;BME280;35529;44.342;25.944;2023-11-19T04:01:43;100509.34;;;7.22;100.00
49122;BME280;35529;44.342;25.944;2023-11-19T04:04:09;100513.28;;;7.27;100.00
49122;BME280;35529;44.342;25.944;2023-11-19T04:06:35;100513.97;;;7.29;100.00
49122;BME280;35529;44.342;25.944;2023-11-19T04:09:01;100519.06;;;7.30;100.00
49122;BME280;35529;44.342;25.944;2023-11-19T04:11:27;100521.69;;;7.30;100.00
49122;BME280;35529;44.342;25.944;2023-11-19T04:13:53;100526.50;;;7.27;100.00
49122;BME280;35529;44.342;25.944;2023-11-19T04:16:19;100525.41;;;7.13;100.00
49122;BME280;35529;44.342;25.944;2023-11-19T04:18:51;100523.41;;;7.15;100.00
49122;BME280;35529;44.342;25.944;2023-11-19T04:21:17;100524.13;;;7.09;100.00
49122;BME280;35529;44.342;25.944;2023-11-19T04:23:43;100525.75;;;7.10;100.00
49122;BME280;35529;44.342;25.944;2023-11-19T04:26:09;100525.56;;;7.11;100.00
49122;BME280;35529;44.342;25.944;2023-11-19T04:28:35;100530.69;;;7.13;100.00
49122;BME280;35529;44.342;25.944;2023-11-19T04:31:01;100516.84;;;7.11;100.00
49122;BME280;35529;44.342;25.944;2023-11-19T04:33:29;100529.06;;;7.12;100.00
49122;BME280;35529;44.342;25.944;2023-11-19T04:35:55;100528.69;;;7.15;100.00
49122;BME280;35529;44.342;25.944;2023-11-19T04:38:21;100529.19;;;7.18;100.00
49122;BME280;35529;44.342;25.944;2023-11-19T04:40:47;100523.53;;;7.21;100.00
49122;BME280;35529;44.342;25.944;2023-11-19T04:43:13;100524.38;;;7.22;100.00
49122;BME280;35529;44.342;25.944;2023-11-19T04:45:39;100531.28;;;7.23;100.00
49122;BME280;35529;44.342;25.944;2023-11-19T04:48:05;100540.88;;;7.24;100.00
49122;BME280;35529;44.342;25.944;2023-11-19T04:50:31;100547.13;;;7.23;100.00
49122;BME280;35529;44.342;25.944;2023-11-19T04:52:57;100553.72;;;7.27;100.00
49122;BME280;35529;44.342;25.944;2023-11-19T04:55:24;100559.19;;;7.26;100.00
49122;BME280;35529;44.342;25.944;2023-11-19T04:57:50;100549.59;;;7.25;100.00
49122;BME280;35529;44.342;25.944;2023-11-19T05:00:16;100544.31;;;7.25;100.00
49122;BME280;35529;44.342;25.944;2023-11-19T05:02:42;100557.38;;;7.26;100.00
49122;BME280;35529;44.342;25.944;2023-11-19T05:05:08;100551.28;;;7.17;100.00
49122;BME280;35529;44.342;25.944;2023-11-19T05:07:35;100551.47;;;7.16;100.00
49122;BME280;35529;44.342;25.944;2023-11-19T05:10:01;100559.41;;;7.16;100.00
49122;BME280;35529;44.342;25.944;2023-11-19T05:12:27;100569.97;;;7.16;100.00
49122;BME280;35529;44.342;25.944;2023-11-19T05:14:53;100563.88;;;7.15;100.00
49122;BME280;35529;44.342;25.944;2023-11-19T05:17:19;100575.41;;;7.14;100.00
49122;BME280;35529;44.342;25.944;2023-11-19T05:19:45;100570.47;;;7.11;100.00
49122;BME280;35529;44.342;25.944;2023-11-19T05:22:12;100572.09;;;7.12;100.00
49122;BME280;35529;44.342;25.944;2023-11-19T05:24:38;100568.69;;;7.03;100.00
49122;BME280;35529;44.342;25.944;2023-11-19T05:27:05;100573.97;;;7.03;100.00
49122;BME280;35529;44.342;25.944;2023-11-19T05:29:32;100576.44;;;7.05;100.00
49122;BME280;35529;44.342;25.944;2023-11-19T05:31:58;100579.25;;;7.03;100.00
49122;BME280;35529;44.342;25.944;2023-11-19T05:34:24;100585.16;;;7.05;100.00
49122;BME280;35529;44.342;25.944;2023-11-19T05:36:51;100588.66;;;7.06;100.00
49122;BME280;35529;44.342;25.944;2023-11-19T05:39:17;100591.13;;;7.08;100.00
49122;BME280;35529;44.342;25.944;2023-11-19T05:41:46;100587.13;;;7.12;100.00
49122;BME280;35529;44.342;25.944;2023-11-19T05:44:12;100592.06;;;7.15;100.00
49122;BME280;35529;44.342;25.944;2023-11-19T05:46:38;100593.19;;;7.20;100.00
49122;BME280;35529;44.342;25.944;2023-11-19T05:49:08;100593.88;;;7.22;100.00
49122;BME280;35529;44.342;25.944;2023-11-19T05:51:38;100601.97;;;7.21;100.00
49122;BME280;35529;44.342;25.944;2023-11-19T05:54:05;100594.34;;;7.26;100.00
49122;BME280;35529;44.342;25.944;2023-11-19T05:56:33;100591.00;;;7.32;100.00
49122;BME280;35529;44.342;25.944;2023-11-19T05:58:59;100592.63;;;7.42;100.00
49122;BME280;35529;44.342;25.944;2023-11-19T06:01:29;100583.16;;;7.47;100.00
49122;BME280;35529;44.342;25.944;2023-11-19T06:03:57;100585.69;;;7.41;100.00
49122;BME280;35529;44.342;25.944;2023-11-19T06:06:23;100588.16;;;7.42;100.00
49122;BME280;35529;44.342;25.944;2023-11-19T06:08:49;100597.91;;;7.42;100.00
49122;BME280;35529;44.342;25.944;2023-11-19T06:11:16;100594.63;;;7.40;100.00
49122;BME280;35529;44.342;25.944;2023-11-19T06:13:44;100601.75;;;7.31;100.00
49122;BME280;35529;44.342;25.944;2023-11-19T06:16:10;100603.44;;;7.24;100.00
49122;BME280;35529;44.342;25.944;2023-11-19T06:18:36;100597.50;;;7.21;100.00
49122;BME280;35529;44.342;25.944;2023-11-19T06:21:03;100593.06;;;7.14;100.00
49122;BME280;35529;44.342;25.944;2023-11-19T06:23:29;100598.88;;;7.09;100.00
49122;BME280;35529;44.342;25.944;2023-11-19T06:25:55;100591.44;;;7.04;100.00
49122;BME280;35529;44.342;25.944;2023-11-19T06:28:21;100589.16;;;7.01;100.00
49122;BME280;35529;44.342;25.944;2023-11-19T06:30:47;100586.38;;;6.95;100.00
49122;BME280;35529;44.342;25.944;2023-11-19T06:33:13;100581.94;;;6.87;100.00
49122;BME280;35529;44.342;25.944;2023-11-19T06:35:40;100584.09;;;6.83;100.00
49122;BME280;35529;44.342;25.944;2023-11-19T06:38:06;100582.94;;;6.86;100.00
49122;BME280;35529;44.342;25.944;2023-11-19T06:40:34;100596.59;;;6.90;100.00
49122;BME280;35529;44.342;25.944;2023-11-19T06:43:03;100590.03;;;6.85;100.00
49122;BME280;35529;44.342;25.944;2023-11-19T06:45:29;100606.69;;;6.86;100.00
49122;BME280;35529;44.342;25.944;2023-11-19T06:47:55;100618.25;;;6.85;100.00
49122;BME280;35529;44.342;25.944;2023-11-19T06:50:21;100610.66;;;6.90;100.00
49122;BME280;35529;44.342;25.944;2023-11-19T06:52:48;100618.22;;;6.93;100.00
49122;BME280;35529;44.342;25.944;2023-11-19T06:55:15;100616.38;;;6.94;100.00
49122;BME280;35529;44.342;25.944;2023-11-19T06:57:41;100616.06;;;6.97;100.00
49122;BME280;35529;44.342;25.944;2023-11-19T07:00:07;100606.81;;;7.01;100.00
49122;BME280;35529;44.342;25.944;2023-11-19T07:02:34;100624.47;;;7.09;100.00
49122;BME280;35529;44.342;25.944;2023-11-19T07:05:00;100622.25;;;7.20;100.00
49122;BME280;35529;44.342;25.944;2023-11-19T07:07:26;100630.97;;;7.29;100.00
49122;BME280;35529;44.342;25.944;2023-11-19T07:09:52;100630.13;;;7.37;100.00
49122;BME280;35529;44.342;25.944;2023-11-19T07:12:18;100634.38;;;7.46;100.00
49122;BME280;35529;44.342;25.944;2023-11-19T07:14:45;100625.75;;;7.52;100.00
49122;BME280;35529;44.342;25.944;2023-11-19T07:17:12;100628.22;;;7.54;100.00
49122;BME280;35529;44.342;25.944;2023-11-19T07:19:38;100638.91;;;7.61;100.00
49122;BME280;35529;44.342;25.944;2023-11-19T07:22:04;100637.06;;;7.69;100.00
49122;BME280;35529;44.342;25.944;2023-11-19T07:24:31;100650.91;;;7.71;100.00
49122;BME280;35529;44.342;25.944;2023-11-19T07:26:58;100641.50;;;7.77;100.00
49122;BME280;35529;44.342;25.944;2023-11-19T07:29:24;100646.25;;;7.82;100.00
49122;BME280;35529;44.342;25.944;2023-11-19T07:31:50;100648.41;;;7.78;100.00
49122;BME280;35529;44.342;25.944;2023-11-19T07:34:16;100647.41;;;7.79;100.00
49122;BME280;35529;44.342;25.944;2023-11-19T07:36:44;100652.66;;;7.87;100.00
49122;BME280;35529;44.342;25.944;2023-11-19T07:39:10;100657.59;;;7.91;100.00
49122;BME280;35529;44.342;25.944;2023-11-19T07:41:36;100680.75;;;7.88;100.00
49122;BME280;35529;44.342;25.944;2023-11-19T07:44:02;100672.69;;;7.82;100.00
49122;BME280;35529;44.342;25.944;2023-11-19T07:46:28;100666.72;;;7.88;100.00
49122;BME280;35529;44.342;25.944;2023-11-19T07:48:54;100670.97;;;7.97;100.00
49122;BME280;35529;44.342;25.944;2023-11-19T07:51:20;100681.16;;;8.00;100.00
49122;BME280;35529;44.342;25.944;2023-11-19T07:53:47;100676.81;;;8.08;100.00
49122;BME280;35529;44.342;25.944;2023-11-19T07:56:13;100664.03;;;8.19;100.00
49122;BME280;35529;44.342;25.944;2023-11-19T07:58:39;100667.50;;;8.20;100.00
49122;BME280;35529;44.342;25.944;2023-11-19T08:01:05;100663.31;;;8.26;100.00
49122;BME280;35529;44.342;25.944;2023-11-19T08:03:32;100669.91;;;8.07;100.00
49122;BME280;35529;44.342;25.944;2023-11-19T08:06:00;100672.81;;;7.88;100.00
49122;BME280;35529;44.342;25.944;2023-11-19T08:08:27;100675.28;;;7.90;100.00
49122;BME280;35529;44.342;25.944;2023-11-19T08:10:55;100667.31;;;7.98;100.00
49122;BME280;35529;44.342;25.944;2023-11-19T08:13:23;100675.88;;;8.00;100.00
49122;BME280;35529;44.342;25.944;2023-11-19T08:15:49;100669.19;;;7.89;100.00
49122;BME280;35529;44.342;25.944;2023-11-19T08:18:15;100649.84;;;7.89;100.00
49122;BME280;35529;44.342;25.944;2023-11-19T08:20:41;100652.09;;;8.00;100.00
49122;BME280;35529;44.342;25.944;2023-11-19T08:23:10;100647.41;;;8.11;100.00
49122;BME280;35529;44.342;25.944;2023-11-19T08:25:36;100650.69;;;8.13;100.00
49122;BME280;35529;44.342;25.944;2023-11-19T08:28:02;100649.97;;;8.19;100.00
49122;BME280;35529;44.342;25.944;2023-11-19T08:30:29;100651.81;;;8.18;100.00
49122;BME280;35529;44.342;25.944;2023-11-19T08:32:56;100647.16;;;8.20;100.00
49122;BME280;35529;44.342;25.944;2023-11-19T08:35:22;100654.22;;;8.28;100.00
49122;BME280;35529;44.342;25.944;2023-11-19T08:37:49;100653.66;;;8.33;100.00
49122;BME280;35529;44.342;25.944;2023-11-19T08:40:15;100657.50;;;8.30;100.00
49122;BME280;35529;44.342;25.944;2023-11-19T08:42:41;100655.91;;;8.21;100.00
49122;BME280;35529;44.342;25.944;2023-11-19T08:45:08;100646.91;;;8.30;100.00
49122;BME280;35529;44.342;25.944;2023-11-19T08:47:37;100652.59;;;8.42;100.00
49122;BME280;35529;44.342;25.944;2023-11-19T08:50:03;100649.59;;;8.53;100.00
49122;BME280;35529;44.342;25.944;2023-11-19T08:52:30;100649.31;;;8.63;100.00
49122;BME280;35529;44.342;25.944;2023-11-19T08:54:56;100655.78;;;8.61;100.00
49122;BME280;35529;44.342;25.944;2023-11-19T08:57:23;100657.19;;;8.71;100.00
49122;BME280;35529;44.342;25.944;2023-11-19T08:59:49;100647.53;;;8.79;100.00
49122;BME280;35529;44.342;25.944;2023-11-19T09:02:15;100651.91;;;8.71;100.00
49122;BME280;35529;44.342;25.944;2023-11-19T09:04:42;100636.47;;;8.75;100.00
49122;BME280;35529;44.342;25.944;2023-11-19T09:07:08;100636.00;;;8.71;100.00
49122;BME280;35529;44.342;25.944;2023-11-19T09:09:35;100628.72;;;8.74;100.00
49122;BME280;35529;44.342;25.944;2023-11-19T09:12:02;100635.31;;;8.78;100.00
49122;BME280;35529;44.342;25.944;2023-11-19T09:14:29;100630.72;;;8.86;100.00
49122;BME280;35529;44.342;25.944;2023-11-19T09:16:56;100630.13;;;8.99;100.00
49122;BME280;35529;44.342;25.944;2023-11-19T09:19:22;100632.28;;;9.11;100.00
49122;BME280;35529;44.342;25.944;2023-11-19T09:21:48;100627.28;;;9.16;100.00
49122;BME280;35529;44.342;25.944;2023-11-19T09:24:15;100613.69;;;9.19;100.00
49122;BME280;35529;44.342;25.944;2023-11-19T09:26:41;100608.63;;;9.24;100.00
49122;BME280;35529;44.342;25.944;2023-11-19T09:29:07;100612.38;;;9.30;100.00
49122;BME280;35529;44.342;25.944;2023-11-19T09:31:33;100605.91;;;9.32;100.00
49122;BME280;35529;44.342;25.944;2023-11-19T09:34:00;100598.09;;;9.31;100.00
49122;BME280;35529;44.342;25.944;2023-11-19T09:36:27;100595.22;;;9.26;100.00
49122;BME280;35529;44.342;25.944;2023-11-19T09:38:53;100587.88;;;9.28;100.00
49122;BME280;35529;44.342;25.944;2023-11-19T09:41:19;100592.88;;;9.37;100.00
49122;BME280;35529;44.342;25.944;2023-11-19T09:43:45;100586.94;;;9.50;100.00
49122;BME280;35529;44.342;25.944;2023-11-19T09:46:12;100588.59;;;9.51;100.00
49122;BME280;35529;44.342;25.944;2023-11-19T09:48:39;100586.94;;;9.50;100.00
49122;BME280;35529;44.342;25.944;2023-11-19T09:51:09;100578.41;;;9.55;100.00
49122;BME280;35529;44.342;25.944;2023-11-19T09:53:36;100575.03;;;9.61;100.00
49122;BME280;35529;44.342;25.944;2023-11-19T09:56:03;100580.41;;;9.68;100.00
49122;BME280;35529;44.342;25.944;2023-11-19T09:58:29;100567.22;;;9.75;100.00
49122;BME280;35529;44.342;25.944;2023-11-19T10:00:57;100574.63;;;9.79;100.00
49122;BME280;35529;44.342;25.944;2023-11-19T10:03:32;100564.22;;;9.84;100.00
49122;BME280;35529;44.342;25.944;2023-11-19T10:05:59;100565.34;;;9.90;100.00
49122;BME280;35529;44.342;25.944;2023-11-19T10:08:26;100566.53;;;9.87;100.00
49122;BME280;35529;44.342;25.944;2023-11-19T10:10:54;100564.75;;;9.95;100.00
49122;BME280;35529;44.342;25.944;2023-11-19T10:13:20;100567.00;;;9.98;100.00
49122;BME280;35529;44.342;25.944;2023-11-19T10:15:51;100560.91;;;9.97;100.00
49122;BME280;35529;44.342;25.944;2023-11-19T10:18:18;100562.16;;;10.01;100.00
49122;BME280;35529;44.342;25.944;2023-11-19T10:20:44;100567.06;;;10.04;100.00
49122;BME280;35529;44.342;25.944;2023-11-19T10:23:11;100558.25;;;9.97;100.00
49122;BME280;35529;44.342;25.944;2023-11-19T10:25:37;100559.06;;;9.98;100.00
49122;BME280;35529;44.342;25.944;2023-11-19T10:28:03;100563.34;;;9.99;100.00
49122;BME280;35529;44.342;25.944;2023-11-19T10:30:30;100547.38;;;9.92;100.00
49122;BME280;35529;44.342;25.944;2023-11-19T10:33:03;100561.75;;;10.04;100.00
49122;BME280;35529;44.342;25.944;2023-11-19T10:35:30;100552.00;;;10.05;100.00
49122;BME280;35529;44.342;25.944;2023-11-19T10:37:56;100544.66;;;10.07;100.00
49122;BME280;35529;44.342;25.944;2023-11-19T10:40:26;100538.94;;;10.03;100.00
49122;BME280;35529;44.342;25.944;2023-11-19T10:43:03;100538.97;;;10.10;100.00
49122;BME280;35529;44.342;25.944;2023-11-19T10:45:29;100542.25;;;10.12;100.00
49122;BME280;35529;44.342;25.944;2023-11-19T10:47:55;100533.47;;;10.12;100.00
49122;BME280;35529;44.342;25.944;2023-11-19T10:50:22;100534.94;;;10.14;100.00
49122;BME280;35529;44.342;25.944;2023-11-19T10:52:51;100541.25;;;10.13;100.00
49122;BME280;35529;44.342;25.944;2023-11-19T10:55:19;100531.63;;;10.12;100.00
49122;BME280;35529;44.342;25.944;2023-11-19T10:57:50;100544.69;;;10.14;100.00
49122;BME280;35529;44.342;25.944;2023-11-19T11:00:17;100545.19;;;10.24;100.00
49122;BME280;35529;44.342;25.944;2023-11-19T11:02:45;100539.13;;;10.30;100.00
49122;BME280;35529;44.342;25.944;2023-11-19T11:05:15;100532.41;;;10.34;100.00
49122;BME280;35529;44.342;25.944;2023-11-19T11:07:42;100520.00;;;10.35;100.00
49122;BME280;35529;44.342;25.944;2023-11-19T11:10:09;100512.97;;;10.27;100.00
49122;BME280;35529;44.342;25.944;2023-11-19T11:12:37;100515.06;;;10.32;100.00
49122;BME280;35529;44.342;25.944;2023-11-19T11:15:05;100523.22;;;10.30;100.00
49122;BME280;35529;44.342;25.944;2023-11-19T11:17:32;100517.84;;;10.23;100.00
49122;BME280;35529;44.342;25.944;2023-11-19T11:19:59;100515.25;;;10.30;100.00
49122;BME280;35529;44.342;25.944;2023-11-19T11:22:25;100513.84;;;10.34;100.00
49122;BME280;35529;44.342;25.944;2023-11-19T11:38:04;100491.56;;;10.57;100.00
49122;BME280;35529;44.342;25.944;2023-11-19T11:40:32;100488.94;;;10.64;100.00
49122;BME280;35529;44.342;25.944;2023-11-19T11:42:58;100490.78;;;10.70;100.00
49122;BME280;35529;44.342;25.944;2023-11-19T11:45:38;100494.06;;;10.72;100.00
49122;BME280;35529;44.342;25.944;2023-11-19T11:50:34;100487.47;;;10.61;100.00
49122;BME280;35529;44.342;25.944;2023-11-19T11:55:35;100495.53;;;10.75;100.00
49122;BME280;35529;44.342;25.944;2023-11-19T11:58:07;100480.41;;;10.75;100.00
49122;BME280;35529;44.342;25.944;2023-11-19T12:00:38;100484.66;;;10.69;100.00
49122;BME280;35529;44.342;25.944;2023-11-19T12:03:05;100482.22;;;10.68;100.00
49122;BME280;35529;44.342;25.944;2023-11-19T12:05:32;100466.31;;;10.75;100.00
49122;BME280;35529;44.342;25.944;2023-11-19T12:08:00;100469.56;;;10.77;100.00
49122;BME280;35529;44.342;25.944;2023-11-19T12:10:37;100465.66;;;10.72;100.00
49122;BME280;35529;44.342;25.944;2023-11-19T12:13:04;100467.09;;;10.68;100.00
49122;BME280;35529;44.342;25.944;2023-11-19T12:15:32;100477.31;;;10.71;100.00
49122;BME280;35529;44.342;25.944;2023-11-19T12:17:59;100487.34;;;10.76;100.00
49122;BME280;35529;44.342;25.944;2023-11-19T12:20:25;100483.03;;;10.75;100.00
49122;BME280;35529;44.342;25.944;2023-11-19T12:22:52;100487.16;;;10.78;100.00
49122;BME280;35529;44.342;25.944;2023-11-19T12:25:18;100484.50;;;10.78;100.00
49122;BME280;35529;44.342;25.944;2023-11-19T12:27:49;100467.16;;;10.82;100.00
49122;BME280;35529;44.342;25.944;2023-11-19T12:30:25;100477.34;;;10.78;100.00
49122;BME280;35529;44.342;25.944;2023-11-19T12:32:51;100476.53;;;10.78;100.00
49122;BME280;35529;44.342;25.944;2023-11-19T12:35:19;100467.16;;;10.82;100.00
49122;BME280;35529;44.342;25.944;2023-11-19T12:37:46;100478.00;;;10.87;100.00
49122;BME280;35529;44.342;25.944;2023-11-19T12:42:45;100483.13;;;10.95;100.00
49122;BME280;35529;44.342;25.944;2023-11-19T12:45:11;100470.25;;;10.92;100.00
49122;BME280;35529;44.342;25.944;2023-11-19T12:47:39;100471.88;;;10.86;100.00
49122;BME280;35529;44.342;25.944;2023-11-19T12:50:06;100486.13;;;10.79;100.00
49122;BME280;35529;44.342;25.944;2023-11-19T12:52:36;100488.16;;;10.77;100.00
49122;BME280;35529;44.342;25.944;2023-11-19T12:55:03;100493.50;;;10.83;100.00
49122;BME280;35529;44.342;25.944;2023-11-19T12:57:42;100498.59;;;10.85;100.00
49122;BME280;35529;44.342;25.944;2023-11-19T13:00:18;100493.31;;;10.92;100.00
49122;BME280;35529;44.342;25.944;2023-11-19T13:02:48;100507.28;;;11.00;100.00
49122;BME280;35529;44.342;25.944;2023-11-19T13:05:27;100495.44;;;11.03;100.00
49122;BME280;35529;44.342;25.944;2023-11-19T13:08:03;100491.34;;;11.00;100.00
49122;BME280;35529;44.342;25.944;2023-11-19T13:10:31;100479.50;;;11.03;100.00
49122;BME280;35529;44.342;25.944;2023-11-19T13:13:04;100480.94;;;11.05;100.00